Lloc web orientat als practicants d'activitats
Centenari de l'SMC: 100 anys mirant el cel

Dades de l'estació automàtica Oliana

?
?

Resum diari

22:30 TU
Dades diàries de l'estació meteorològica
Temperatura mitjana 10.0 °C
Temperatura màxima 17.6 °C 14:57 TU
Temperatura mínima 1.6 °C 0:31 TU
Humitat relativa mitjana 56%
Precipitació acumulada 0.0 mm
Ratxa màxima del vent (2 m) 20.5 km/h - 207º 12:09 TU
Irradiació solar global 22.7 MJ/m2

El tram horari està expressat en Temps Universal (TU). Cal sumar una hora en horari d'hivern i dues en horari d'estiu per passar a l'hora oficial.

Oliana

Metadades estació meteorològica
Municipi Oliana
Comarca Alt Urgell
Altitud 490 m
Data alta 22.06.2000
Estat actual Operativa
Dades de període
Període
TU
TM
°C
TX
°C
TN
°C
HRM
%
PPT
mm
VVM (2 m)
km/h
DVM (2 m)
graus
VVX (2 m)
km/h
RS
W/m2
00:00 - 00:30 2.4 2.8 1.7 90 0.0 1.4 61 4.0 0
00:30 - 01:00 2.0 2.3 1.6 91 0.0 2.2 82 7.6 0
01:00 - 01:30 2.4 2.8 2.1 90 0.0 2.2 111 7.2 0
01:30 - 02:00 2.1 2.5 1.9 92 0.0 3.2 147 10.8 0
02:00 - 02:30 2.1 2.4 1.8 92 0.0 2.5 135 8.3 0
02:30 - 03:00 3.7 5.1 2.2 75 0.0 3.6 215 14.8 0
03:00 - 03:30 4.3 5.6 3.1 70 0.0 3.6 176 13.3 0
03:30 - 04:00 4.4 5.6 3.0 67 0.0 4.0 328 15.5 0
04:00 - 04:30 5.7 5.9 5.6 52 0.0 4.3 30 15.5 0
04:30 - 05:00 5.3 5.9 4.0 53 0.0 5.0 343 16.9 0
05:00 - 05:30 2.9 4.1 2.1 77 0.0 3.2 287 14.0 2
05:30 - 06:00 3.0 3.7 2.4 71 0.0 2.9 99 14.0 19
06:00 - 06:30 3.7 5.3 2.6 70 0.0 3.2 101 11.5 121
06:30 - 07:00 6.2 6.9 5.3 52 0.0 3.2 17 18.0 224
07:00 - 07:30 7.9 9.0 7.0 45 0.0 3.2 23 12.2 342
07:30 - 08:00 9.4 9.9 8.8 45 0.0 2.5 147 9.7 409
08:00 - 08:30 9.9 11.0 9.6 45 0.0 2.9 242 10.4 503
08:30 - 09:00 11.2 11.9 10.5 48 0.0 3.2 219 10.4 620
09:00 - 09:30 11.8 12.7 11.3 47 0.0 3.6 230 10.8 698
09:30 - 10:00 12.8 13.6 12.4 46 0.0 7.6 219 13.3 768
10:00 - 10:30 13.7 14.1 13.4 41 0.0 7.2 203 15.5 844
10:30 - 11:00 13.9 14.3 13.5 41 0.0 8.6 206 16.2 679
11:00 - 11:30 14.8 15.3 14.1 40 0.0 9.4 211 18.0 912
11:30 - 12:00 15.4 16.0 15.0 38 0.0 10.8 195 19.1 919
12:00 - 12:30 15.9 16.3 15.4 34 0.0 10.1 194 20.5 915
12:30 - 13:00 16.0 16.3 15.6 31 0.0 10.8 197 18.7 807
13:00 - 13:30 16.5 16.8 15.8 27 0.0 9.4 200 18.4 793
13:30 - 14:00 16.6 17.2 16.0 26 0.0 10.1 204 19.1 801
14:00 - 14:30 16.7 17.2 16.4 24 0.0 7.6 208 18.4 747
14:30 - 15:00 16.8 17.6 16.3 27 0.0 8.6 199 19.1 605
15:00 - 15:30 16.1 17.3 15.7 32 0.0 11.9 193 20.2 342
15:30 - 16:00 15.5 15.7 15.2 37 0.0 9.7 203 15.8 277
16:00 - 16:30 15.0 15.2 14.8 35 0.0 6.1 199 13.7 140
16:30 - 17:00 14.6 14.8 14.5 33 0.0 5.0 213 9.0 79
17:00 - 17:30 14.2 14.5 14.0 34 0.0 4.3 194 7.9 53
17:30 - 18:00 13.7 14.0 13.4 46 0.0 5.8 191 13.0 32
18:00 - 18:30 12.9 13.4 12.5 60 0.0 1.1 246 6.1 13
18:30 - 19:00 11.9 12.4 11.3 65 0.0 2.2 64 5.8 0
19:00 - 19:30 11.2 11.4 11.0 65 0.0 3.2 64 6.1 0
19:30 - 20:00 10.8 11.0 10.7 66 0.0 2.2 59 5.0 0
20:00 - 20:30 10.4 10.8 9.9 69 0.0 2.2 72 4.3 0
20:30 - 21:00 9.6 9.9 9.3 74 0.0 1.4 75 3.2 0
21:00 - 21:30 9.3 9.4 9.2 77 0.0 2.5 67 5.4 0
21:30 - 22:00 9.1 9.4 8.8 80 0.0 2.2 64 5.4 0
22:00 - 22:30 9.2 9.3 9.0 81 0.0 1.1 61 3.2 0
22:30 - 23:00 9.1 9.5 8.7 83 0.0 0.7 45 6.1 0
23:00 - 23:30 (s/d) (s/d) (s/d) (s/d) (s/d) (s/d) (s/d) (s/d) (s/d)

Les dades en taronja només han passat un control de qualitat automàtic. Resta pendent la seva validació definitiva.